Fingard — OJNG — position and weather

sailwx.info

Track history (hours):
 
Tides and Currents Weather Stations Pressure Air Temp Water Temp Dewpoint Dewpoint Depression Visibility Wind Speed Wind Dir Waves Ship Positions

Fingard

Last reported at 2014-Sep-26 11:32 UTC. Time now 2014-Oct-01 08:19 UTC.
Position N 57°44' E 018°03'.

Length 95 m; draft 5.8 m.

Type: Ship. MMSI: 230999000.

Date/timePositionNaut miles runAvg speedWind from/ knotsBaromVisibWave heightAir tempDewpointWater temp
2014-Sep-26 11:32N 57°44' E 018°03'23 9.8
2014-Sep-26 09:09N 57°23' E 017°43'6 9.4
2014-Sep-26 08:33N 57°18' E 017°39'10 9.5
2014-Sep-26 07:33N 57°09' E 017°33'1110.6
2014-Sep-26 06:33N 56°59' E 017°26'13 9.8
2014-Sep-26 05:16N 56°47' E 017°18'7 8.8
2014-Sep-26 04:26N 56°40' E 017°14'11 9.2
2014-Sep-26 03:18N 56°31' E 017°07'9 9.0
2014-Sep-26 02:15N 56°22' E 017°01'79 8.8
2014-Sep-25 17:13N 55°33' E 015°08'6 9.1
2014-Sep-25 16:33N 55°31' E 014°59'9 9.1
2014-Sep-25 15:33N 55°26' E 014°45'9 9.4
2014-Sep-25 14:33N 55°19' E 014°35'9 8.9
2014-Sep-25 13:33N 55°12' E 014°25'8 8.5
2014-Sep-25 12:33N 55°10' E 014°10'10 9.7
2014-Sep-25 11:33N 55°11' E 013°53'10 9.5
2014-Sep-25 10:32N 55°12' E 013°36'14 9.5
2014-Sep-25 09:03N 55°14' E 013°12'5 9.8
2014-Sep-25 08:33N 55°14' E 013°03'10 9.8
2014-Sep-25 07:33N 55°16' E 012°46'9 8.6
2014-Sep-25 06:33N 55°24' E 012°39'1010.1
2014-Sep-25 05:33N 55°34' E 012°42'1010.4
2014-Sep-25 04:33N 55°44' E 012°41'1110.6
2014-Sep-25 03:33N 55°54' E 012°38'9 9.4
2014-Sep-25 02:33N 56°04' E 012°37'1110.7
2014-Sep-25 01:33N 56°10' E 012°22'1010.3
2014-Sep-25 00:33N 56°16' E 012°07'11 9.7
2014-Sep-24 23:28N 56°26' E 011°59'910.3
2014-Sep-24 22:33N 56°35' E 011°56'1010.3
2014-Sep-24 21:33N 56°45' E 011°52'10 9.7
2014-Sep-24 20:33N 56°54' E 011°46'9 9.5
2014-Sep-24 19:33N 57°03' E 011°41'10 9.6
2014-Sep-24 18:33N 57°12' E 011°35'1010.0
2014-Sep-24 17:33N 57°22' E 011°28'1010.3
2014-Sep-24 16:33N 57°30' E 011°18'1110.6
2014-Sep-24 15:33N 57°37' E 011°03'10 9.6
2014-Sep-24 14:31N 57°44' E 010°50'28010.3
2014-Sep-23 11:17N 54°17' E 005°12'811.2
2014-Sep-23 10:33N 54°10' E 005°04'1110.5
2014-Sep-23 09:28N 53°59' E 004°59'1010.8
2014-Sep-23 08:32N 53°50' E 005°07'1110.8
2014-Sep-23 07:33N 53°41' E 005°14'10 9.9
2014-Sep-23 06:33N 53°31' E 005°12'1212.3
2014-Sep-23 05:33N 53°27' E 004°52'3612.0
2014-Sep-23 02:33N 52°57' E 004°19'1212.3
2014-Sep-23 01:33N 52°47' E 004°07'1211.9
2014-Sep-23 00:33N 52°38' E 003°54'1611.1
2014-Sep-22 23:10N 52°26' E 003°38'36 9.6
2014-Sep-22 19:22N 51°51' E 003°21'8 8.8
2014-Sep-22 18:24N 51°44' E 003°13'8 9.2
2014-Sep-22 17:33N 51°38' E 003°21'1111.2
2014-Sep-22 16:33N 51°28' E 003°30'1110.5
2014-Sep-22 15:33N 51°22' E 003°44'4 4.1
2014-Sep-22 14:34N 51°20' E 003°49'4 3.7
2014-Sep-22 13:33N 51°16' E 003°50'7 7.2
2014-Sep-22 12:33N 51°09' E 003°47'2 1.7
2014-Sep-22 11:33N 51°08' E 003°46'0 0.0
2014-Sep-22 10:30N 51°08' E 003°46'0 0.0
2014-Sep-22 09:30N 51°08' E 003°46'0 0.0
2014-Sep-22 08:33N 51°08' E 003°46'0 0.0
2014-Sep-22 07:33N 51°08' E 003°46'0 0.0
2014-Sep-22 06:27N 51°08' E 003°46'0 0.0
2014-Sep-22 05:30N 51°08' E 003°46'0 0.0
2014-Sep-22 04:30N 51°08' E 003°46'0 0.0
2014-Sep-22 03:33N 51°08' E 003°46'0 0.0
2014-Sep-22 02:33N 51°08' E 003°46'0 0.0
2014-Sep-22 01:30N 51°08' E 003°46'0 0.0
2014-Sep-22 00:30N 51°08' E 003°46'0 0.0
2014-Sep-21 23:30N 51°08' E 003°46'0 0.0
2014-Sep-21 22:24N 51°08' E 003°46'0 0.0
2014-Sep-21 21:30N 51°08' E 003°46'0 0.0
2014-Sep-21 20:33N 51°08' E 003°46'0 0.0
2014-Sep-21 19:30N 51°08' E 003°46'0 0.0
2014-Sep-21 18:33N 51°08' E 003°46'0 0.0
2014-Sep-21 17:33N 51°08' E 003°46'0 0.0
2014-Sep-21 16:24N 51°08' E 003°46'0 0.0
2014-Sep-21 15:29N 51°08' E 003°46'0 0.0
2014-Sep-21 14:33N 51°08' E 003°46'0 0.0
2014-Sep-21 13:29N 51°08' E 003°46'0 0.0
2014-Sep-21 12:30N 51°08' E 003°46'0 0.0
2014-Sep-21 11:32N 51°08' E 003°46'0 0.0
2014-Sep-21 10:32N 51°08' E 003°46'0 0.0
2014-Sep-21 09:32N 51°08' E 003°46'0 0.0
2014-Sep-21 08:32N 51°08' E 003°46'0 0.0
2014-Sep-21 07:32N 51°08' E 003°46'0 0.0
2014-Sep-21 06:32N 51°08' E 003°46'0 0.0
2014-Sep-21 05:32N 51°08' E 003°46'0 0.0
2014-Sep-21 04:29N 51°08' E 003°46'0 0.0
2014-Sep-21 03:29N 51°08' E 003°46'0 0.0
2014-Sep-21 02:32N 51°08' E 003°46'0 0.0
2014-Sep-21 01:32N 51°08' E 003°46'0 0.0
2014-Sep-21 00:26N 51°08' E 003°46'0 0.0
2014-Sep-20 23:29N 51°08' E 003°46'0 0.0
2014-Sep-20 22:29N 51°08' E 003°46'0 0.0
2014-Sep-20 21:32N 51°08' E 003°46'0 0.0
2014-Sep-20 20:32N 51°08' E 003°46'0 0.0
2014-Sep-20 19:32N 51°08' E 003°46'0 0.0
2014-Sep-20 18:32N 51°08' E 003°46'0 0.0
2014-Sep-20 17:32N 51°08' E 003°46'0 0.0
2014-Sep-20 16:29N 51°08' E 003°46'0 0.0
2014-Sep-20 15:32N 51°08' E 003°46'0 0.0
2014-Sep-20 14:26N 51°08' E 003°46'0 0.0
2014-Sep-20 13:32N 51°08' E 003°46'0 0.0
2014-Sep-20 12:29N 51°08' E 003°46'0 0.0
2014-Sep-20 11:32N 51°08' E 003°46'0 0.0
2014-Sep-20 10:32N 51°08' E 003°46'0 0.0
2014-Sep-20 09:29N 51°08' E 003°46'0 0.0
2014-Sep-20 08:28N 51°08' E 003°46'0 0.0
2014-Sep-20 07:31N 51°08' E 003°46'0 0.0
2014-Sep-20 06:31N 51°08' E 003°46'0 0.0
2014-Sep-20 05:28N 51°08' E 003°46'0 0.0
2014-Sep-20 04:28N 51°08' E 003°46'0 0.0
2014-Sep-20 03:31N 51°08' E 003°46'0 0.0
2014-Sep-20 02:31N 51°08' E 003°46'0 0.0
2014-Sep-20 01:31N 51°08' E 003°46'0 0.0
2014-Sep-20 00:28N 51°08' E 003°46'0 0.0
2014-Sep-19 23:25N 51°08' E 003°46'0 0.0
2014-Sep-19 22:22N 51°08' E 003°46'0 0.0
2014-Sep-19 21:28N 51°08' E 003°46'0 0.0
2014-Sep-19 20:31N 51°08' E 003°46'0 0.0
2014-Sep-19 19:31N 51°08' E 003°46'0 0.0
2014-Sep-19 18:31N 51°08' E 003°46'0 0.0
2014-Sep-19 17:31N 51°08' E 003°46'4 3.9
2014-Sep-19 16:33N 51°11' E 003°48'9 8.5
2014-Sep-19 15:34N 51°20' E 003°49'2 2.2
2014-Sep-19 14:34N 51°21' E 003°47'9 9.5
2014-Sep-19 13:34N 51°25' E 003°33'9 9.0
2014-Sep-19 12:34N 51°24' E 003°19'9 8.4
2014-Sep-19 11:32N 51°22' E 003°06'8 7.9
2014-Sep-19 10:31N 51°22' E 002°53'8 8.2
2014-Sep-19 09:33N 51°22' E 002°40'13 6.1
2014-Sep-19 07:30N 51°19' E 002°21'10 9.6
2014-Sep-19 06:25N 51°13' E 002°07'8 8.8
2014-Sep-19 05:33N 51°09' E 001°56'9 8.5
2014-Sep-19 04:33N 51°04' E 001°45'9 9.0
2014-Sep-19 03:33N 50°58' E 001°35'30 9.3
2014-Sep-19 00:17N 50°33' E 001°08'7 9.7
2014-Sep-18 23:33N 50°31' E 000°57'1110.7
2014-Sep-18 22:33N 50°28' E 000°41'1211.2
2014-Sep-18 21:29N 50°25' E 000°23'1111.4
2014-Sep-18 20:33N 50°23' E 000°06'9 9.1
2014-Sep-18 19:31N 50°28' W 000°06'1211.8
2014-Sep-18 18:31N 50°39' W 000°10'1111.0
2014-Sep-18 17:33N 50°49' W 000°15'1 0.7
2014-Sep-18 16:33N 50°50' W 000°14'0 0.0
2014-Sep-18 15:32N 50°50' W 000°14'0 0.0
2014-Sep-18 14:32N 50°50' W 000°14'0 0.0
2014-Sep-18 13:32N 50°50' W 000°14'0 0.0
2014-Sep-18 12:32N 50°50' W 000°14'0 0.0
2014-Sep-18 11:31N 50°50' W 000°14'0 0.0
2014-Sep-18 10:31N 50°50' W 000°14'0 0.0
2014-Sep-18 09:31N 50°50' W 000°14'0 0.0
2014-Sep-18 08:31N 50°50' W 000°14'0 0.0
2014-Sep-18 07:31N 50°50' W 000°14'0 0.2
2014-Sep-18 06:33N 50°50' W 000°14'1 1.5
2014-Sep-18 05:33N 50°48' W 000°15'6 6.5
2014-Sep-18 04:33N 50°42' W 000°14'8 7.8
2014-Sep-18 03:31N 50°34' W 000°17'9 9.0
2014-Sep-18 02:33N 50°30' W 000°29'2 1.9
2014-Sep-18 01:16N 50°28' W 000°26'6 7.8
2014-Sep-18 00:32N 50°30' W 000°18'17 8.5
2014-Sep-17 22:29N 50°34' E 000°09'8 8.9
2014-Sep-17 21:33N 50°36' E 000°22'9 8.8
2014-Sep-17 20:33N 50°39' E 000°35'8 8.5
2014-Sep-17 19:33N 50°44' E 000°46'8 8.0
2014-Sep-17 18:32N 50°48' E 000°56'8 7.6
2014-Sep-17 17:31N 50°53' E 001°06'10 9.5
2014-Sep-17 16:31N 50°59' E 001°18'1212.5
2014-Sep-17 15:33N 51°07' E 001°32'1313.3
2014-Sep-17 14:34N 51°17' E 001°47'1413.8
2014-Sep-17 13:33N 51°29' E 001°56'1312.9
2014-Sep-17 12:33N 51°40' E 002°08'1312.8
2014-Sep-17 11:32N 51°53' E 002°10'1212.0
2014-Sep-17 10:33N 52°05' E 002°10'2311.5
2014-Sep-17 08:33N 52°28' E 002°09'1111.0
2014-Sep-17 07:33N 52°39' E 002°06'1111.1
2014-Sep-17 06:33N 52°47' E 001°56'1211.7
2014-Sep-17 05:33N 52°54' E 001°40'1212.2
2014-Sep-17 04:33N 53°03' E 001°25'1312.6
2014-Sep-17 03:33N 53°12' E 001°11'2612.7
2014-Sep-17 01:32N 53°27' E 000°37'1212.5
2014-Sep-17 00:33N 53°32' E 000°18'1211.6
2014-Sep-16 23:33N 53°35' W 000°00'1111.4
2014-Sep-16 22:33N 53°43' W 000°15'2 2.3
2014-Sep-16 21:33N 53°45' W 000°18'0 0.0
2014-Sep-16 20:33N 53°45' W 000°18'0 0.0
2014-Sep-16 19:33N 53°45' W 000°18'0 0.0
2014-Sep-16 18:21N 53°45' W 000°18'0 0.0
2014-Sep-16 17:33N 53°45' W 000°18'0 0.0
2014-Sep-16 16:33N 53°45' W 000°18'0 0.0
2014-Sep-16 15:27N 53°45' W 000°18'0 0.0
2014-Sep-16 14:33N 53°45' W 000°18'0 0.0
2014-Sep-16 13:24N 53°45' W 000°18'0 0.0
2014-Sep-16 12:30N 53°45' W 000°18'  
Track history (hours):
 
Tides and Currents Weather Stations Pressure Air Temp Water Temp Dewpoint Dewpoint Depression Visibility Wind Speed Wind Dir Waves Ship Positions

Fingard

Last reported at 2014-Sep-26 11:32 UTC. Time now 2014-Oct-01 08:19 UTC.
Position N 57°44' E 018°03'.

Length 95 m; draft 5.8 m.

Type: Ship. MMSI: 230999000.

Date/timePositionNaut miles runAvg speedWind from/ knotsBaromVisibWave heightAir tempDewpointWater temp
2014-Sep-26 11:32N 57°44' E 018°03'23 9.8
2014-Sep-26 09:09N 57°23' E 017°43'6 9.4
2014-Sep-26 08:33N 57°18' E 017°39'10 9.5
2014-Sep-26 07:33N 57°09' E 017°33'1110.6
2014-Sep-26 06:33N 56°59' E 017°26'13 9.8
2014-Sep-26 05:16N 56°47' E 017°18'7 8.8
2014-Sep-26 04:26N 56°40' E 017°14'11 9.2
2014-Sep-26 03:18N 56°31' E 017°07'9 9.0
2014-Sep-26 02:15N 56°22' E 017°01'79 8.8
2014-Sep-25 17:13N 55°33' E 015°08'6 9.1
2014-Sep-25 16:33N 55°31' E 014°59'9 9.1
2014-Sep-25 15:33N 55°26' E 014°45'9 9.4
2014-Sep-25 14:33N 55°19' E 014°35'9 8.9
2014-Sep-25 13:33N 55°12' E 014°25'8 8.5
2014-Sep-25 12:33N 55°10' E 014°10'10 9.7
2014-Sep-25 11:33N 55°11' E 013°53'10 9.5
2014-Sep-25 10:32N 55°12' E 013°36'14 9.5
2014-Sep-25 09:03N 55°14' E 013°12'5 9.8
2014-Sep-25 08:33N 55°14' E 013°03'10 9.8
2014-Sep-25 07:33N 55°16' E 012°46'9 8.6
2014-Sep-25 06:33N 55°24' E 012°39'1010.1
2014-Sep-25 05:33N 55°34' E 012°42'1010.4
2014-Sep-25 04:33N 55°44' E 012°41'1110.6
2014-Sep-25 03:33N 55°54' E 012°38'9 9.4
2014-Sep-25 02:33N 56°04' E 012°37'1110.7
2014-Sep-25 01:33N 56°10' E 012°22'1010.3
2014-Sep-25 00:33N 56°16' E 012°07'11 9.7
2014-Sep-24 23:28N 56°26' E 011°59'910.3
2014-Sep-24 22:33N 56°35' E 011°56'1010.3
2014-Sep-24 21:33N 56°45' E 011°52'10 9.7
2014-Sep-24 20:33N 56°54' E 011°46'9 9.5
2014-Sep-24 19:33N 57°03' E 011°41'10 9.6
2014-Sep-24 18:33N 57°12' E 011°35'1010.0
2014-Sep-24 17:33N 57°22' E 011°28'1010.3
2014-Sep-24 16:33N 57°30' E 011°18'1110.6
2014-Sep-24 15:33N 57°37' E 011°03'10 9.6
2014-Sep-24 14:31N 57°44' E 010°50'28010.3
2014-Sep-23 11:17N 54°17' E 005°12'811.2
2014-Sep-23 10:33N 54°10' E 005°04'1110.5
2014-Sep-23 09:28N 53°59' E 004°59'1010.8
2014-Sep-23 08:32N 53°50' E 005°07'1110.8
2014-Sep-23 07:33N 53°41' E 005°14'10 9.9
2014-Sep-23 06:33N 53°31' E 005°12'1212.3
2014-Sep-23 05:33N 53°27' E 004°52'3612.0
2014-Sep-23 02:33N 52°57' E 004°19'1212.3
2014-Sep-23 01:33N 52°47' E 004°07'1211.9
2014-Sep-23 00:33N 52°38' E 003°54'1611.1
2014-Sep-22 23:10N 52°26' E 003°38'36 9.6
2014-Sep-22 19:22N 51°51' E 003°21'8 8.8
2014-Sep-22 18:24N 51°44' E 003°13'8 9.2
2014-Sep-22 17:33N 51°38' E 003°21'1111.2
2014-Sep-22 16:33N 51°28' E 003°30'1110.5
2014-Sep-22 15:33N 51°22' E 003°44'4 4.1
2014-Sep-22 14:34N 51°20' E 003°49'4 3.7
2014-Sep-22 13:33N 51°16' E 003°50'7 7.2
2014-Sep-22 12:33N 51°09' E 003°47'2 1.7
2014-Sep-22 11:33N 51°08' E 003°46'0 0.0
2014-Sep-22 10:30N 51°08' E 003°46'0 0.0
2014-Sep-22 09:30N 51°08' E 003°46'0 0.0
2014-Sep-22 08:33N 51°08' E 003°46'0 0.0
2014-Sep-22 07:33N 51°08' E 003°46'0 0.0
2014-Sep-22 06:27N 51°08' E 003°46'0 0.0
2014-Sep-22 05:30N 51°08' E 003°46'0 0.0
2014-Sep-22 04:30N 51°08' E 003°46'0 0.0
2014-Sep-22 03:33N 51°08' E 003°46'0 0.0
2014-Sep-22 02:33N 51°08' E 003°46'0 0.0
2014-Sep-22 01:30N 51°08' E 003°46'0 0.0
2014-Sep-22 00:30N 51°08' E 003°46'0 0.0
2014-Sep-21 23:30N 51°08' E 003°46'0 0.0
2014-Sep-21 22:24N 51°08' E 003°46'0 0.0
2014-Sep-21 21:30N 51°08' E 003°46'0 0.0
2014-Sep-21 20:33N 51°08' E 003°46'0 0.0
2014-Sep-21 19:30N 51°08' E 003°46'0 0.0
2014-Sep-21 18:33N 51°08' E 003°46'0 0.0
2014-Sep-21 17:33N 51°08' E 003°46'0 0.0
2014-Sep-21 16:24N 51°08' E 003°46'0 0.0
2014-Sep-21 15:29N 51°08' E 003°46'0 0.0
2014-Sep-21 14:33N 51°08' E 003°46'0 0.0
2014-Sep-21 13:29N 51°08' E 003°46'0 0.0
2014-Sep-21 12:30N 51°08' E 003°46'0 0.0
2014-Sep-21 11:32N 51°08' E 003°46'0 0.0
2014-Sep-21 10:32N 51°08' E 003°46'0 0.0
2014-Sep-21 09:32N 51°08' E 003°46'0 0.0
2014-Sep-21 08:32N 51°08' E 003°46'0 0.0
2014-Sep-21 07:32N 51°08' E 003°46'0 0.0
2014-Sep-21 06:32N 51°08' E 003°46'0 0.0
2014-Sep-21 05:32N 51°08' E 003°46'0 0.0
2014-Sep-21 04:29N 51°08' E 003°46'0 0.0
2014-Sep-21 03:29N 51°08' E 003°46'0 0.0
2014-Sep-21 02:32N 51°08' E 003°46'0 0.0
2014-Sep-21 01:32N 51°08' E 003°46'0 0.0
2014-Sep-21 00:26N 51°08' E 003°46'0 0.0
2014-Sep-20 23:29N 51°08' E 003°46'0 0.0
2014-Sep-20 22:29N 51°08' E 003°46'0 0.0
2014-Sep-20 21:32N 51°08' E 003°46'0 0.0
2014-Sep-20 20:32N 51°08' E 003°46'0 0.0
2014-Sep-20 19:32N 51°08' E 003°46'0 0.0
2014-Sep-20 18:32N 51°08' E 003°46'0 0.0
2014-Sep-20 17:32N 51°08' E 003°46'0 0.0
2014-Sep-20 16:29N 51°08' E 003°46'0 0.0
2014-Sep-20 15:32N 51°08' E 003°46'0 0.0
2014-Sep-20 14:26N 51°08' E 003°46'0 0.0
2014-Sep-20 13:32N 51°08' E 003°46'0 0.0
2014-Sep-20 12:29N 51°08' E 003°46'0 0.0
2014-Sep-20 11:32N 51°08' E 003°46'0 0.0
2014-Sep-20 10:32N 51°08' E 003°46'0 0.0
2014-Sep-20 09:29N 51°08' E 003°46'0 0.0
2014-Sep-20 08:28N 51°08' E 003°46'0 0.0
2014-Sep-20 07:31N 51°08' E 003°46'0 0.0
2014-Sep-20 06:31N 51°08' E 003°46'0 0.0
2014-Sep-20 05:28N 51°08' E 003°46'0 0.0
2014-Sep-20 04:28N 51°08' E 003°46'0 0.0
2014-Sep-20 03:31N 51°08' E 003°46'0 0.0
2014-Sep-20 02:31N 51°08' E 003°46'0 0.0
2014-Sep-20 01:31N 51°08' E 003°46'0 0.0
2014-Sep-20 00:28N 51°08' E 003°46'0 0.0
2014-Sep-19 23:25N 51°08' E 003°46'0 0.0
2014-Sep-19 22:22N 51°08' E 003°46'0 0.0
2014-Sep-19 21:28N 51°08' E 003°46'0 0.0
2014-Sep-19 20:31N 51°08' E 003°46'0 0.0
2014-Sep-19 19:31N 51°08' E 003°46'0 0.0
2014-Sep-19 18:31N 51°08' E 003°46'0 0.0
2014-Sep-19 17:31N 51°08' E 003°46'4 3.9
2014-Sep-19 16:33N 51°11' E 003°48'9 8.5
2014-Sep-19 15:34N 51°20' E 003°49'2 2.2
2014-Sep-19 14:34N 51°21' E 003°47'9 9.5
2014-Sep-19 13:34N 51°25' E 003°33'9 9.0
2014-Sep-19 12:34N 51°24' E 003°19'9 8.4
2014-Sep-19 11:32N 51°22' E 003°06'8 7.9
2014-Sep-19 10:31N 51°22' E 002°53'8 8.2
2014-Sep-19 09:33N 51°22' E 002°40'13 6.1
2014-Sep-19 07:30N 51°19' E 002°21'10 9.6
2014-Sep-19 06:25N 51°13' E 002°07'8 8.8
2014-Sep-19 05:33N 51°09' E 001°56'9 8.5
2014-Sep-19 04:33N 51°04' E 001°45'9 9.0
2014-Sep-19 03:33N 50°58' E 001°35'30 9.3
2014-Sep-19 00:17N 50°33' E 001°08'7 9.7
2014-Sep-18 23:33N 50°31' E 000°57'1110.7
2014-Sep-18 22:33N 50°28' E 000°41'1211.2
2014-Sep-18 21:29N 50°25' E 000°23'1111.4
2014-Sep-18 20:33N 50°23' E 000°06'9 9.1
2014-Sep-18 19:31N 50°28' W 000°06'1211.8
2014-Sep-18 18:31N 50°39' W 000°10'1111.0
2014-Sep-18 17:33N 50°49' W 000°15'1 0.7
2014-Sep-18 16:33N 50°50' W 000°14'0 0.0
2014-Sep-18 15:32N 50°50' W 000°14'0 0.0
2014-Sep-18 14:32N 50°50' W 000°14'0 0.0
2014-Sep-18 13:32N 50°50' W 000°14'0 0.0
2014-Sep-18 12:32N 50°50' W 000°14'0 0.0
2014-Sep-18 11:31N 50°50' W 000°14'0 0.0
2014-Sep-18 10:31N 50°50' W 000°14'0 0.0
2014-Sep-18 09:31N 50°50' W 000°14'0 0.0
2014-Sep-18 08:31N 50°50' W 000°14'0 0.0
2014-Sep-18 07:31N 50°50' W 000°14'0 0.2
2014-Sep-18 06:33N 50°50' W 000°14'1 1.5
2014-Sep-18 05:33N 50°48' W 000°15'6 6.5
2014-Sep-18 04:33N 50°42' W 000°14'8 7.8
2014-Sep-18 03:31N 50°34' W 000°17'9 9.0
2014-Sep-18 02:33N 50°30' W 000°29'2 1.9
2014-Sep-18 01:16N 50°28' W 000°26'6 7.8
2014-Sep-18 00:32N 50°30' W 000°18'17 8.5
2014-Sep-17 22:29N 50°34' E 000°09'8 8.9
2014-Sep-17 21:33N 50°36' E 000°22'9 8.8
2014-Sep-17 20:33N 50°39' E 000°35'8 8.5
2014-Sep-17 19:33N 50°44' E 000°46'8 8.0
2014-Sep-17 18:32N 50°48' E 000°56'8 7.6
2014-Sep-17 17:31N 50°53' E 001°06'10 9.5
2014-Sep-17 16:31N 50°59' E 001°18'1212.5
2014-Sep-17 15:33N 51°07' E 001°32'1313.3
2014-Sep-17 14:34N 51°17' E 001°47'1413.8
2014-Sep-17 13:33N 51°29' E 001°56'1312.9
2014-Sep-17 12:33N 51°40' E 002°08'1312.8
2014-Sep-17 11:32N 51°53' E 002°10'1212.0
2014-Sep-17 10:33N 52°05' E 002°10'2311.5
2014-Sep-17 08:33N 52°28' E 002°09'1111.0
2014-Sep-17 07:33N 52°39' E 002°06'1111.1
2014-Sep-17 06:33N 52°47' E 001°56'1211.7
2014-Sep-17 05:33N 52°54' E 001°40'1212.2
2014-Sep-17 04:33N 53°03' E 001°25'1312.6
2014-Sep-17 03:33N 53°12' E 001°11'2612.7
2014-Sep-17 01:32N 53°27' E 000°37'1212.5
2014-Sep-17 00:33N 53°32' E 000°18'1211.6
2014-Sep-16 23:33N 53°35' W 000°00'1111.4
2014-Sep-16 22:33N 53°43' W 000°15'2 2.3
2014-Sep-16 21:33N 53°45' W 000°18'0 0.0
2014-Sep-16 20:33N 53°45' W 000°18'0 0.0
2014-Sep-16 19:33N 53°45' W 000°18'0 0.0
2014-Sep-16 18:21N 53°45' W 000°18'0 0.0
2014-Sep-16 17:33N 53°45' W 000°18'0 0.0
2014-Sep-16 16:33N 53°45' W 000°18'0 0.0
2014-Sep-16 15:27N 53°45' W 000°18'0 0.0
2014-Sep-16 14:33N 53°45' W 000°18'0 0.0
2014-Sep-16 13:24N 53°45' W 000°18'0 0.0
2014-Sep-16 12:30N 53°45' W 000°18'  

Dump ship's entire track history